NOZ32A ENGM-EGKK
Flight info
| Callsign | NOZ32A |
|---|---|
| Flight time | 1h 57m |
| Altitude | 36000 |
| Route | VIPPA DCT UPGAS DCT TIPAN DCT WECOW DCT BINBO DCT AKOKO N866 BUKUT P7 BARMI |
| Aircraft | B738/M-SDE2E3FGHIRWXY/LB1 |
Departure
| Time | 2026-05-06 17:53 |
|---|---|
| Airport | Oslo-Gardermoen International Airport (ENGM) |
Arrival
| Time | 2026-05-06 19:51 |
|---|---|
| Airport | London Gatwick Airport (EGKK) |
| Time | Latitude | Longitude | Altitude | Speed | Heading |
|---|---|---|---|---|---|
| 2026-05-06 17:15 | 60.19416 | 11.10464 | 684 ft | 0 kts | 196° |
| 2026-05-06 17:40 | 60.19432 | 11.10473 | 679 ft | 4 kts | 196° |
| 2026-05-06 17:41 | 60.19458 | 11.10488 | 684 ft | 4 kts | 196° |
| 2026-05-06 17:41 | 60.19483 | 11.10502 | 677 ft | 4 kts | 196° |
| 2026-05-06 17:41 | 60.19504 | 11.10514 | 683 ft | 4 kts | 178° |
| 2026-05-06 17:41 | 60.19523 | 11.10496 | 677 ft | 4 kts | 114° |
| 2026-05-06 17:42 | 60.19527 | 11.10476 | 682 ft | 3 kts | 106° |
| 2026-05-06 17:42 | 60.19520 | 11.10527 | 680 ft | 4 kts | 106° |
| 2026-05-06 17:42 | 60.19512 | 11.10579 | 682 ft | 4 kts | 106° |
| 2026-05-06 17:42 | 60.19505 | 11.10632 | 680 ft | 4 kts | 106° |
| 2026-05-06 17:43 | 60.19500 | 11.10667 | 681 ft | 4 kts | 106° |
| 2026-05-06 17:43 | 60.19492 | 11.10719 | 680 ft | 4 kts | 106° |
| 2026-05-06 17:43 | 60.19490 | 11.10739 | 682 ft | 0 kts | 106° |
| 2026-05-06 17:47 | 60.19489 | 11.10742 | 682 ft | 1 kts | 106° |
| 2026-05-06 17:47 | 60.19483 | 11.10782 | 681 ft | 5 kts | 105° |
| 2026-05-06 17:48 | 60.19471 | 11.10870 | 682 ft | 7 kts | 106° |
| 2026-05-06 17:48 | 60.19458 | 11.10962 | 682 ft | 7 kts | 106° |
| 2026-05-06 17:48 | 60.19445 | 11.11054 | 680 ft | 7 kts | 106° |
| 2026-05-06 17:48 | 60.19430 | 11.11154 | 679 ft | 9 kts | 105° |
| 2026-05-06 17:49 | 60.19432 | 11.11275 | 681 ft | 10 kts | 50° |
| 2026-05-06 17:49 | 60.19507 | 11.11332 | 681 ft | 13 kts | 16° |
| 2026-05-06 17:49 | 60.19592 | 11.11378 | 680 ft | 12 kts | 15° |
| 2026-05-06 17:49 | 60.19674 | 11.11427 | 682 ft | 12 kts | 17° |
| 2026-05-06 17:50 | 60.19753 | 11.11473 | 683 ft | 12 kts | 16° |
| 2026-05-06 17:50 | 60.19831 | 11.11519 | 684 ft | 11 kts | 16° |
| 2026-05-06 17:50 | 60.19907 | 11.11562 | 681 ft | 11 kts | 17° |
| 2026-05-06 17:50 | 60.19980 | 11.11606 | 685 ft | 11 kts | 16° |
| 2026-05-06 17:51 | 60.20052 | 11.11646 | 679 ft | 11 kts | 15° |
| 2026-05-06 17:51 | 60.20120 | 11.11684 | 686 ft | 10 kts | 16° |
| 2026-05-06 17:51 | 60.20176 | 11.11758 | 682 ft | 10 kts | 76° |
| 2026-05-06 17:51 | 60.20160 | 11.11899 | 685 ft | 10 kts | 106° |
| 2026-05-06 17:52 | 60.20140 | 11.12038 | 682 ft | 10 kts | 106° |
| 2026-05-06 17:52 | 60.20115 | 11.12168 | 685 ft | 10 kts | 114° |
| 2026-05-06 17:52 | 60.20060 | 11.12211 | 687 ft | 10 kts | 194° |
| 2026-05-06 17:52 | 60.19964 | 11.12158 | 687 ft | 30 kts | 196° |
| 2026-05-06 17:53 | 60.19527 | 11.11905 | 682 ft | 98 kts | 196° |
| 2026-05-06 17:53 | 60.18693 | 11.11424 | 683 ft | 152 kts | 196° |
| 2026-05-06 17:53 | 60.17557 | 11.10806 | 945 ft | 176 kts | 197° |
| 2026-05-06 17:53 | 60.16392 | 11.10169 | 1722 ft | 176 kts | 197° |
| 2026-05-06 17:54 | 60.15173 | 11.09522 | 2348 ft | 190 kts | 197° |
| 2026-05-06 17:54 | 60.13819 | 11.08759 | 2624 ft | 214 kts | 200° |
| 2026-05-06 17:54 | 60.12319 | 11.07938 | 2937 ft | 232 kts | 189° |
| 2026-05-06 17:54 | 60.10680 | 11.07657 | 3455 ft | 243 kts | 187° |
| 2026-05-06 17:55 | 60.08933 | 11.07319 | 3927 ft | 257 kts | 188° |
| 2026-05-06 17:55 | 60.07137 | 11.06940 | 4682 ft | 262 kts | 188° |
| 2026-05-06 17:55 | 60.05331 | 11.06444 | 5493 ft | 262 kts | 196° |
| 2026-05-06 17:55 | 60.03594 | 11.05286 | 6294 ft | 264 kts | 202° |
| 2026-05-06 17:56 | 60.01869 | 11.03982 | 6815 ft | 266 kts | 202° |
| 2026-05-06 17:56 | 60.00132 | 11.02670 | 6989 ft | 269 kts | 202° |
| 2026-05-06 17:56 | 59.98372 | 11.01356 | 6999 ft | 270 kts | 202° |
| 2026-05-06 17:56 | 59.96616 | 11.00056 | 6987 ft | 269 kts | 202° |
| 2026-05-06 17:57 | 59.94863 | 10.98769 | 7009 ft | 268 kts | 202° |
| 2026-05-06 17:57 | 59.93116 | 10.97496 | 7027 ft | 268 kts | 202° |
| 2026-05-06 17:57 | 59.91341 | 10.96203 | 7346 ft | 274 kts | 202° |
| 2026-05-06 17:57 | 59.89560 | 10.94912 | 8230 ft | 271 kts | 201° |
| 2026-05-06 17:58 | 59.87799 | 10.93608 | 9075 ft | 270 kts | 202° |
| 2026-05-06 17:58 | 59.86038 | 10.92243 | 9851 ft | 273 kts | 203° |
| 2026-05-06 17:58 | 59.84248 | 10.90841 | 10330 ft | 285 kts | 204° |
| 2026-05-06 17:58 | 59.82330 | 10.89335 | 10521 ft | 307 kts | 204° |
| 2026-05-06 17:59 | 59.80281 | 10.87716 | 10714 ft | 326 kts | 206° |
| 2026-05-06 17:59 | 59.78321 | 10.85417 | 11277 ft | 329 kts | 218° |
| 2026-05-06 17:59 | 59.76493 | 10.82693 | 12064 ft | 329 kts | 219° |
| 2026-05-06 17:59 | 59.74678 | 10.79946 | 12878 ft | 328 kts | 220° |
| 2026-05-06 18:00 | 59.72857 | 10.77192 | 13642 ft | 330 kts | 220° |
| 2026-05-06 18:00 | 59.71017 | 10.74423 | 14280 ft | 335 kts | 220° |
| 2026-05-06 18:00 | 59.69147 | 10.71628 | 14957 ft | 338 kts | 220° |
| 2026-05-06 18:00 | 59.67307 | 10.68896 | 15694 ft | 339 kts | 220° |
| 2026-05-06 18:01 | 59.65446 | 10.66144 | 16394 ft | 341 kts | 220° |
| 2026-05-06 18:01 | 59.63533 | 10.63326 | 17103 ft | 344 kts | 220° |
| 2026-05-06 18:01 | 59.61604 | 10.60492 | 17789 ft | 347 kts | 220° |
| 2026-05-06 18:01 | 59.59685 | 10.57681 | 18422 ft | 350 kts | 220° |
| 2026-05-06 18:02 | 59.57731 | 10.54825 | 19025 ft | 352 kts | 220° |
| 2026-05-06 18:02 | 59.55741 | 10.51920 | 19648 ft | 353 kts | 220° |
| 2026-05-06 18:02 | 59.53786 | 10.49072 | 20234 ft | 355 kts | 220° |
| 2026-05-06 18:02 | 59.51808 | 10.46193 | 20830 ft | 357 kts | 221° |
| 2026-05-06 18:03 | 59.49806 | 10.43284 | 21394 ft | 359 kts | 221° |
| 2026-05-06 18:03 | 59.47804 | 10.40382 | 21998 ft | 360 kts | 221° |
| 2026-05-06 18:03 | 59.45779 | 10.37450 | 22453 ft | 364 kts | 221° |
| 2026-05-06 18:03 | 59.43720 | 10.34467 | 22840 ft | 370 kts | 221° |
| 2026-05-06 18:04 | 59.41646 | 10.31471 | 23395 ft | 371 kts | 221° |
| 2026-05-06 18:04 | 59.39560 | 10.28466 | 23895 ft | 372 kts | 221° |
| 2026-05-06 18:04 | 59.37469 | 10.25458 | 24371 ft | 373 kts | 220° |
| 2026-05-06 18:04 | 59.35374 | 10.22448 | 24832 ft | 374 kts | 220° |
| 2026-05-06 18:05 | 59.33273 | 10.19435 | 25269 ft | 375 kts | 220° |
| 2026-05-06 18:05 | 59.31159 | 10.16408 | 25692 ft | 377 kts | 220° |
| 2026-05-06 18:05 | 59.29043 | 10.13380 | 26127 ft | 378 kts | 220° |
| 2026-05-06 18:05 | 59.26917 | 10.10343 | 26518 ft | 380 kts | 220° |
| 2026-05-06 18:06 | 59.24776 | 10.07291 | 26909 ft | 381 kts | 220° |
| 2026-05-06 18:06 | 59.22635 | 10.04245 | 27306 ft | 383 kts | 220° |
| 2026-05-06 18:06 | 59.20478 | 10.01182 | 27640 ft | 384 kts | 220° |
| 2026-05-06 18:06 | 59.18305 | 9.98096 | 27896 ft | 388 kts | 220° |
| 2026-05-06 18:07 | 59.16113 | 9.94991 | 28216 ft | 390 kts | 220° |
| 2026-05-06 18:07 | 59.13912 | 9.91880 | 28580 ft | 391 kts | 220° |
| 2026-05-06 18:07 | 59.11720 | 9.88784 | 28933 ft | 392 kts | 220° |
| 2026-05-06 18:07 | 59.09508 | 9.85665 | 29326 ft | 393 kts | 220° |
| 2026-05-06 18:08 | 59.07302 | 9.82562 | 29838 ft | 390 kts | 219° |
| 2026-05-06 18:08 | 59.05124 | 9.79504 | 30329 ft | 386 kts | 219° |
| 2026-05-06 18:08 | 59.02944 | 9.76447 | 30673 ft | 386 kts | 219° |
| 2026-05-06 18:08 | 59.00830 | 9.73484 | 30943 ft | 387 kts | 219° |
| 2026-05-06 18:09 | 58.98687 | 9.70486 | 31247 ft | 387 kts | 219° |
| 2026-05-06 18:09 | 58.96502 | 9.67434 | 31590 ft | 387 kts | 219° |
| 2026-05-06 18:09 | 58.94350 | 9.64433 | 31866 ft | 386 kts | 219° |
| 2026-05-06 18:10 | 58.92138 | 9.61354 | 32143 ft | 387 kts | 219° |
| 2026-05-06 18:10 | 58.89976 | 9.58350 | 32455 ft | 387 kts | 219° |
| 2026-05-06 18:10 | 58.87820 | 9.55360 | 32807 ft | 386 kts | 219° |
| 2026-05-06 18:10 | 58.85611 | 9.52300 | 33137 ft | 386 kts | 219° |
| 2026-05-06 18:11 | 58.83451 | 9.49312 | 33338 ft | 388 kts | 219° |
| 2026-05-06 18:11 | 58.81250 | 9.46270 | 33544 ft | 390 kts | 219° |
| 2026-05-06 18:11 | 58.79045 | 9.43230 | 33905 ft | 388 kts | 219° |
| 2026-05-06 18:11 | 58.76853 | 9.40215 | 34197 ft | 387 kts | 219° |
| 2026-05-06 18:12 | 58.74652 | 9.37190 | 34339 ft | 390 kts | 219° |
| 2026-05-06 18:12 | 58.72494 | 9.34228 | 34463 ft | 392 kts | 219° |
| 2026-05-06 18:12 | 58.70237 | 9.31137 | 34682 ft | 393 kts | 219° |
| 2026-05-06 18:13 | 58.68789 | 9.29154 | 34767 ft | 393 kts | 219° |
| 2026-05-06 18:13 | 58.65996 | 9.25338 | 34938 ft | 396 kts | 219° |
| 2026-05-06 18:14 | 58.63743 | 9.22263 | 35069 ft | 398 kts | 219° |
| 2026-05-06 18:14 | 58.61483 | 9.19186 | 35234 ft | 399 kts | 219° |
| 2026-05-06 18:14 | 58.59219 | 9.16109 | 35426 ft | 399 kts | 218° |
| 2026-05-06 18:14 | 58.56947 | 9.13026 | 35596 ft | 400 kts | 218° |
| 2026-05-06 18:15 | 58.54671 | 9.09941 | 35741 ft | 402 kts | 218° |
| 2026-05-06 18:15 | 58.52383 | 9.06847 | 35905 ft | 403 kts | 218° |
| 2026-05-06 18:15 | 58.47775 | 9.00630 | 35958 ft | 406 kts | 218° |
| 2026-05-06 18:16 | 58.43173 | 8.94447 | 35952 ft | 402 kts | 218° |
| 2026-05-06 18:16 | 58.38610 | 8.88332 | 35956 ft | 400 kts | 218° |
| 2026-05-06 18:17 | 58.34065 | 8.82258 | 35961 ft | 398 kts | 218° |
| 2026-05-06 18:17 | 58.29533 | 8.76221 | 35962 ft | 397 kts | 218° |
| 2026-05-06 18:18 | 58.25002 | 8.70203 | 35966 ft | 398 kts | 218° |
| 2026-05-06 18:18 | 58.20457 | 8.64186 | 35976 ft | 399 kts | 218° |
| 2026-05-06 18:19 | 58.15887 | 8.58159 | 35960 ft | 401 kts | 218° |
| 2026-05-06 18:19 | 58.11296 | 8.52120 | 35973 ft | 404 kts | 218° |
| 2026-05-06 18:20 | 58.06663 | 8.46042 | 35973 ft | 407 kts | 218° |
| 2026-05-06 18:20 | 58.01999 | 8.39947 | 35969 ft | 409 kts | 218° |
| 2026-05-06 18:21 | 57.97309 | 8.33840 | 35969 ft | 410 kts | 218° |
| 2026-05-06 18:21 | 57.92604 | 8.27733 | 35941 ft | 411 kts | 218° |
| 2026-05-06 18:22 | 57.87904 | 8.21652 | 35964 ft | 410 kts | 218° |
| 2026-05-06 18:22 | 57.83208 | 8.15595 | 35965 ft | 409 kts | 217° |
| 2026-05-06 18:23 | 57.78525 | 8.09576 | 35975 ft | 408 kts | 217° |
| 2026-05-06 18:23 | 57.73854 | 8.03588 | 35963 ft | 406 kts | 217° |
| 2026-05-06 18:24 | 57.69195 | 7.97634 | 35977 ft | 405 kts | 217° |
| 2026-05-06 18:24 | 57.64579 | 7.91756 | 35970 ft | 403 kts | 217° |
| 2026-05-06 18:25 | 57.59919 | 7.85841 | 35976 ft | 402 kts | 217° |
| 2026-05-06 18:25 | 57.55319 | 7.80019 | 35980 ft | 403 kts | 217° |
| 2026-05-06 18:26 | 57.50678 | 7.74164 | 35986 ft | 404 kts | 217° |
| 2026-05-06 18:26 | 57.46694 | 7.69151 | 35994 ft | 406 kts | 217° |
| 2026-05-06 18:27 | 57.43927 | 7.65677 | 35994 ft | 407 kts | 217° |
| 2026-05-06 18:27 | 57.39227 | 7.59792 | 35984 ft | 408 kts | 217° |
| 2026-05-06 18:28 | 57.35276 | 7.54860 | 35995 ft | 409 kts | 217° |
| 2026-05-06 18:28 | 57.29776 | 7.48018 | 35995 ft | 411 kts | 217° |
| 2026-05-06 18:29 | 57.25024 | 7.42125 | 36002 ft | 412 kts | 217° |
| 2026-05-06 18:29 | 57.20266 | 7.36244 | 36004 ft | 412 kts | 217° |
| 2026-05-06 18:30 | 57.16274 | 7.31322 | 35975 ft | 412 kts | 217° |
| 2026-05-06 18:30 | 57.11521 | 7.25481 | 35997 ft | 410 kts | 216° |
| 2026-05-06 18:31 | 57.06775 | 7.19668 | 36007 ft | 409 kts | 217° |
| 2026-05-06 18:31 | 57.02045 | 7.13888 | 36008 ft | 408 kts | 216° |
| 2026-05-06 18:32 | 56.97322 | 7.08137 | 36008 ft | 407 kts | 216° |
| 2026-05-06 18:32 | 56.92630 | 7.02442 | 36017 ft | 407 kts | 216° |
| 2026-05-06 18:33 | 56.87905 | 6.96723 | 36009 ft | 407 kts | 216° |
| 2026-05-06 18:33 | 56.83171 | 6.91011 | 36019 ft | 408 kts | 216° |
| 2026-05-06 18:34 | 56.78429 | 6.85307 | 36017 ft | 409 kts | 216° |
| 2026-05-06 18:34 | 56.73671 | 6.79601 | 36019 ft | 410 kts | 216° |
| 2026-05-06 18:35 | 56.68894 | 6.73893 | 36025 ft | 411 kts | 216° |
| 2026-05-06 18:35 | 56.64111 | 6.68192 | 36011 ft | 411 kts | 216° |
| 2026-05-06 18:36 | 56.59320 | 6.62502 | 36014 ft | 411 kts | 216° |
| 2026-05-06 18:36 | 56.54527 | 6.56827 | 36023 ft | 412 kts | 216° |
| 2026-05-06 18:37 | 56.49726 | 6.51158 | 36027 ft | 412 kts | 216° |
| 2026-05-06 18:37 | 56.44923 | 6.45502 | 36029 ft | 412 kts | 216° |
| 2026-05-06 18:38 | 56.40118 | 6.39861 | 36012 ft | 412 kts | 216° |
| 2026-05-06 18:38 | 56.35316 | 6.34242 | 36027 ft | 411 kts | 216° |
| 2026-05-06 18:39 | 56.30517 | 6.28646 | 36025 ft | 411 kts | 216° |
| 2026-05-06 18:40 | 56.23311 | 6.20274 | 36032 ft | 411 kts | 216° |
| 2026-05-06 18:40 | 56.18501 | 6.14705 | 36031 ft | 411 kts | 215° |
| 2026-05-06 18:41 | 56.13690 | 6.09152 | 36019 ft | 411 kts | 215° |
| 2026-05-06 18:41 | 56.08872 | 6.03609 | 36034 ft | 411 kts | 215° |
| 2026-05-06 18:42 | 56.04050 | 5.98080 | 36038 ft | 412 kts | 215° |
| 2026-05-06 18:42 | 55.99222 | 5.92557 | 36029 ft | 412 kts | 215° |
| 2026-05-06 18:43 | 55.94385 | 5.87041 | 36038 ft | 413 kts | 215° |
| 2026-05-06 18:43 | 55.89540 | 5.81532 | 36038 ft | 413 kts | 215° |
| 2026-05-06 18:44 | 55.84695 | 5.76041 | 36028 ft | 413 kts | 215° |
| 2026-05-06 18:44 | 55.79845 | 5.70560 | 36040 ft | 413 kts | 215° |
| 2026-05-06 18:45 | 55.75026 | 5.65133 | 36020 ft | 413 kts | 215° |
| 2026-05-06 18:45 | 55.70173 | 5.59678 | 36046 ft | 413 kts | 215° |
| 2026-05-06 18:46 | 55.65317 | 5.54242 | 36014 ft | 413 kts | 215° |
| 2026-05-06 18:46 | 55.60458 | 5.48815 | 36029 ft | 413 kts | 214° |
| 2026-05-06 18:47 | 55.55593 | 5.43398 | 36037 ft | 413 kts | 214° |
| 2026-05-06 18:47 | 55.50725 | 5.37995 | 36036 ft | 413 kts | 214° |
| 2026-05-06 18:48 | 55.45851 | 5.32601 | 36037 ft | 414 kts | 214° |
| 2026-05-06 18:48 | 55.40964 | 5.27206 | 36017 ft | 415 kts | 214° |
| 2026-05-06 18:49 | 55.36072 | 5.21825 | 36024 ft | 415 kts | 214° |
| 2026-05-06 18:49 | 55.31169 | 5.16451 | 36034 ft | 416 kts | 214° |
| 2026-05-06 18:50 | 55.26262 | 5.11083 | 36030 ft | 416 kts | 214° |
| 2026-05-06 18:50 | 55.21353 | 5.05727 | 36033 ft | 415 kts | 214° |
| 2026-05-06 18:51 | 55.16446 | 5.00392 | 36035 ft | 415 kts | 214° |
| 2026-05-06 18:51 | 55.11543 | 4.95073 | 36023 ft | 415 kts | 214° |
| 2026-05-06 18:52 | 55.06637 | 4.89773 | 36026 ft | 414 kts | 214° |
| 2026-05-06 18:52 | 55.01738 | 4.84494 | 36030 ft | 414 kts | 214° |
| 2026-05-06 18:53 | 54.96834 | 4.79222 | 36017 ft | 414 kts | 214° |
| 2026-05-06 18:53 | 54.91924 | 4.73959 | 36009 ft | 414 kts | 214° |
| 2026-05-06 18:54 | 54.87015 | 4.68716 | 36000 ft | 414 kts | 214° |
| 2026-05-06 18:54 | 54.82133 | 4.63515 | 36017 ft | 414 kts | 213° |
| 2026-05-06 18:55 | 54.77215 | 4.58288 | 36010 ft | 415 kts | 213° |
| 2026-05-06 18:55 | 54.72292 | 4.53073 | 36017 ft | 416 kts | 213° |
| 2026-05-06 18:56 | 54.67352 | 4.47854 | 36014 ft | 416 kts | 213° |
| 2026-05-06 18:56 | 54.62409 | 4.42645 | 36006 ft | 416 kts | 213° |
| 2026-05-06 18:57 | 54.57406 | 4.37576 | 36014 ft | 417 kts | 211° |
| 2026-05-06 18:57 | 54.52263 | 4.32919 | 36016 ft | 418 kts | 210° |
| 2026-05-06 18:58 | 54.47096 | 4.28309 | 36021 ft | 418 kts | 210° |
| 2026-05-06 18:58 | 54.41936 | 4.23668 | 36005 ft | 419 kts | 210° |
| 2026-05-06 18:59 | 54.36778 | 4.19013 | 36019 ft | 419 kts | 210° |
| 2026-05-06 18:59 | 54.31611 | 4.14359 | 36006 ft | 420 kts | 210° |
| 2026-05-06 19:00 | 54.26442 | 4.09714 | 36018 ft | 420 kts | 210° |
| 2026-05-06 19:00 | 54.21271 | 4.05086 | 36018 ft | 420 kts | 210° |
| 2026-05-06 19:01 | 54.16100 | 4.00465 | 36010 ft | 419 kts | 210° |
| 2026-05-06 19:01 | 54.10933 | 3.95862 | 36023 ft | 419 kts | 210° |
| 2026-05-06 19:02 | 54.05763 | 3.91266 | 36021 ft | 419 kts | 210° |
| 2026-05-06 19:02 | 54.00622 | 3.86713 | 36023 ft | 419 kts | 210° |
| 2026-05-06 19:03 | 53.95431 | 3.82129 | 36028 ft | 422 kts | 210° |
| 2026-05-06 19:03 | 53.90185 | 3.77509 | 36027 ft | 429 kts | 209° |
| 2026-05-06 19:04 | 53.84841 | 3.72811 | 36031 ft | 437 kts | 209° |
| 2026-05-06 19:04 | 53.79406 | 3.68049 | 36021 ft | 441 kts | 209° |
| 2026-05-06 19:05 | 53.73950 | 3.63284 | 36028 ft | 442 kts | 209° |
| 2026-05-06 19:05 | 53.68480 | 3.58522 | 36003 ft | 442 kts | 209° |
| 2026-05-06 19:06 | 53.63019 | 3.53778 | 36015 ft | 441 kts | 209° |
| 2026-05-06 19:06 | 53.57565 | 3.49055 | 36020 ft | 441 kts | 209° |
| 2026-05-06 19:07 | 53.52117 | 3.44349 | 36020 ft | 440 kts | 209° |
| 2026-05-06 19:07 | 53.46668 | 3.39656 | 36016 ft | 440 kts | 209° |
| 2026-05-06 19:08 | 53.41228 | 3.34984 | 36016 ft | 439 kts | 209° |
| 2026-05-06 19:08 | 53.35787 | 3.30347 | 36009 ft | 439 kts | 209° |
| 2026-05-06 19:09 | 53.30335 | 3.25729 | 35990 ft | 439 kts | 209° |
| 2026-05-06 19:09 | 53.24930 | 3.21157 | 35990 ft | 438 kts | 208° |
| 2026-05-06 19:10 | 53.19457 | 3.16525 | 35980 ft | 438 kts | 209° |
| 2026-05-06 19:10 | 53.14070 | 3.11961 | 35991 ft | 437 kts | 209° |
| 2026-05-06 19:11 | 53.08642 | 3.07392 | 35995 ft | 437 kts | 208° |
| 2026-05-06 19:11 | 53.03201 | 3.02837 | 36016 ft | 438 kts | 208° |
| 2026-05-06 19:12 | 52.97746 | 2.98274 | 36010 ft | 440 kts | 208° |
| 2026-05-06 19:12 | 52.92278 | 2.93716 | 35998 ft | 440 kts | 208° |
| 2026-05-06 19:13 | 52.86821 | 2.89164 | 35525 ft | 440 kts | 208° |
| 2026-05-06 19:13 | 52.84094 | 2.86893 | 34963 ft | 437 kts | 208° |
| 2026-05-06 19:13 | 52.81375 | 2.84629 | 34328 ft | 438 kts | 208° |
| 2026-05-06 19:13 | 52.78650 | 2.82366 | 33612 ft | 439 kts | 208° |
| 2026-05-06 19:14 | 52.75924 | 2.80104 | 32850 ft | 439 kts | 208° |
| 2026-05-06 19:14 | 52.73193 | 2.77845 | 32145 ft | 438 kts | 208° |
| 2026-05-06 19:14 | 52.70469 | 2.75598 | 31427 ft | 438 kts | 208° |
| 2026-05-06 19:14 | 52.67737 | 2.73349 | 30685 ft | 439 kts | 208° |
| 2026-05-06 19:15 | 52.64997 | 2.71094 | 29916 ft | 440 kts | 208° |
| 2026-05-06 19:15 | 52.62255 | 2.68839 | 29013 ft | 441 kts | 208° |
| 2026-05-06 19:15 | 52.59528 | 2.66601 | 28452 ft | 435 kts | 208° |
| 2026-05-06 19:15 | 52.56832 | 2.64391 | 27859 ft | 430 kts | 208° |
| 2026-05-06 19:16 | 52.54172 | 2.62212 | 27296 ft | 425 kts | 208° |
| 2026-05-06 19:16 | 52.51543 | 2.60061 | 26733 ft | 420 kts | 208° |
| 2026-05-06 19:16 | 52.49820 | 2.58653 | 26361 ft | 417 kts | 208° |
| 2026-05-06 19:16 | 52.47235 | 2.56545 | 25898 ft | 411 kts | 208° |
| 2026-05-06 19:17 | 52.44723 | 2.54504 | 25832 ft | 396 kts | 208° |
| 2026-05-06 19:17 | 52.41424 | 2.51824 | 25691 ft | 408 kts | 208° |
| 2026-05-06 19:17 | 52.39689 | 2.50413 | 25607 ft | 417 kts | 208° |
| 2026-05-06 19:17 | 52.36185 | 2.47570 | 25445 ft | 429 kts | 208° |
| 2026-05-06 19:18 | 52.33501 | 2.45400 | 25296 ft | 429 kts | 208° |
| 2026-05-06 19:18 | 52.31696 | 2.43944 | 25198 ft | 427 kts | 208° |
| 2026-05-06 19:18 | 52.29035 | 2.41798 | 25074 ft | 425 kts | 208° |
| 2026-05-06 19:18 | 52.26387 | 2.39665 | 24934 ft | 424 kts | 208° |
| 2026-05-06 19:19 | 52.23746 | 2.37538 | 24805 ft | 423 kts | 208° |
| 2026-05-06 19:19 | 52.21106 | 2.35414 | 24685 ft | 423 kts | 208° |
| 2026-05-06 19:19 | 52.18471 | 2.33297 | 24562 ft | 422 kts | 208° |
| 2026-05-06 19:19 | 52.15836 | 2.31182 | 24434 ft | 422 kts | 208° |
| 2026-05-06 19:20 | 52.13234 | 2.29098 | 24307 ft | 422 kts | 208° |
| 2026-05-06 19:20 | 52.10565 | 2.26964 | 24174 ft | 422 kts | 208° |
| 2026-05-06 19:20 | 52.07929 | 2.24858 | 24055 ft | 422 kts | 208° |
| 2026-05-06 19:20 | 52.05326 | 2.22782 | 23918 ft | 422 kts | 208° |
| 2026-05-06 19:21 | 52.02690 | 2.20683 | 23801 ft | 421 kts | 208° |
| 2026-05-06 19:21 | 52.00063 | 2.18592 | 23667 ft | 421 kts | 208° |
| 2026-05-06 19:21 | 51.97435 | 2.16503 | 23534 ft | 420 kts | 208° |
| 2026-05-06 19:21 | 51.94811 | 2.14418 | 23394 ft | 420 kts | 208° |
| 2026-05-06 19:22 | 51.92191 | 2.12340 | 23262 ft | 418 kts | 208° |
| 2026-05-06 19:22 | 51.89586 | 2.10276 | 23121 ft | 417 kts | 208° |
| 2026-05-06 19:22 | 51.86983 | 2.08217 | 23000 ft | 416 kts | 208° |
| 2026-05-06 19:22 | 51.84385 | 2.06165 | 22874 ft | 415 kts | 208° |
| 2026-05-06 19:23 | 51.81798 | 2.04123 | 22748 ft | 414 kts | 208° |
| 2026-05-06 19:23 | 51.79213 | 2.02086 | 22622 ft | 413 kts | 208° |
| 2026-05-06 19:23 | 51.76630 | 2.00052 | 22488 ft | 413 kts | 207° |
| 2026-05-06 19:23 | 51.74051 | 1.98023 | 22369 ft | 412 kts | 207° |
| 2026-05-06 19:24 | 51.71474 | 1.95999 | 22241 ft | 412 kts | 207° |
| 2026-05-06 19:24 | 51.68895 | 1.93977 | 22121 ft | 412 kts | 207° |
| 2026-05-06 19:24 | 51.66328 | 1.91931 | 22003 ft | 411 kts | 211° |
| 2026-05-06 19:24 | 51.64063 | 1.89135 | 21512 ft | 414 kts | 230° |
| 2026-05-06 19:25 | 51.62242 | 1.85607 | 21006 ft | 407 kts | 231° |
| 2026-05-06 19:25 | 51.60421 | 1.82166 | 20443 ft | 401 kts | 230° |
| 2026-05-06 19:25 | 51.58594 | 1.78797 | 19903 ft | 397 kts | 230° |
| 2026-05-06 19:25 | 51.56781 | 1.75493 | 19377 ft | 393 kts | 230° |
| 2026-05-06 19:26 | 51.54977 | 1.72218 | 18855 ft | 389 kts | 230° |
| 2026-05-06 19:26 | 51.53192 | 1.68978 | 18346 ft | 386 kts | 230° |
| 2026-05-06 19:26 | 51.51416 | 1.65758 | 17764 ft | 383 kts | 230° |
| 2026-05-06 19:26 | 51.49657 | 1.62560 | 17215 ft | 380 kts | 231° |
| 2026-05-06 19:27 | 51.48280 | 1.59006 | 16707 ft | 374 kts | 250° |
| 2026-05-06 19:27 | 51.47432 | 1.55094 | 16235 ft | 371 kts | 252° |
| 2026-05-06 19:27 | 51.46579 | 1.51174 | 15721 ft | 373 kts | 251° |
| 2026-05-06 19:27 | 51.45698 | 1.47265 | 15218 ft | 373 kts | 251° |
| 2026-05-06 19:28 | 51.44803 | 1.43376 | 14711 ft | 370 kts | 251° |
| 2026-05-06 19:28 | 51.43876 | 1.39539 | 14206 ft | 369 kts | 245° |
| 2026-05-06 19:28 | 51.42378 | 1.36235 | 13908 ft | 365 kts | 226° |
| 2026-05-06 19:28 | 51.40462 | 1.33567 | 13692 ft | 369 kts | 225° |
| 2026-05-06 19:29 | 51.38891 | 1.30326 | 13454 ft | 368 kts | 239° |
| 2026-05-06 19:29 | 51.37512 | 1.26884 | 13230 ft | 366 kts | 238° |
| 2026-05-06 19:29 | 51.36125 | 1.23478 | 13055 ft | 365 kts | 238° |
| 2026-05-06 19:29 | 51.34729 | 1.20094 | 12999 ft | 364 kts | 238° |
| 2026-05-06 19:30 | 51.33348 | 1.16780 | 12985 ft | 351 kts | 238° |
| 2026-05-06 19:30 | 51.32015 | 1.13601 | 12970 ft | 337 kts | 237° |
| 2026-05-06 19:30 | 51.30740 | 1.10573 | 12981 ft | 321 kts | 237° |
| 2026-05-06 19:30 | 51.29523 | 1.07687 | 12979 ft | 306 kts | 237° |
| 2026-05-06 19:31 | 51.28359 | 1.04934 | 12974 ft | 292 kts | 237° |
| 2026-05-06 19:31 | 51.27242 | 1.02297 | 12978 ft | 282 kts | 238° |
| 2026-05-06 19:31 | 51.25041 | 0.97095 | 13000 ft | 287 kts | 237° |
| 2026-05-06 19:32 | 51.23919 | 0.94448 | 13006 ft | 287 kts | 237° |
| 2026-05-06 19:32 | 51.22780 | 0.91764 | 13008 ft | 296 kts | 238° |
| 2026-05-06 19:32 | 51.21625 | 0.89044 | 12712 ft | 299 kts | 237° |
| 2026-05-06 19:32 | 51.20435 | 0.86248 | 12063 ft | 309 kts | 237° |
| 2026-05-06 19:33 | 51.19213 | 0.83379 | 11480 ft | 315 kts | 237° |
| 2026-05-06 19:33 | 51.17980 | 0.80491 | 11087 ft | 314 kts | 237° |
| 2026-05-06 19:33 | 51.16754 | 0.77623 | 10738 ft | 312 kts | 237° |
| 2026-05-06 19:33 | 51.15536 | 0.74773 | 10378 ft | 310 kts | 237° |
| 2026-05-06 19:34 | 51.14321 | 0.71935 | 10001 ft | 309 kts | 237° |
| 2026-05-06 19:34 | 51.13114 | 0.69119 | 9690 ft | 307 kts | 237° |
| 2026-05-06 19:34 | 51.11920 | 0.66334 | 9461 ft | 303 kts | 237° |
| 2026-05-06 19:34 | 51.10736 | 0.63580 | 9282 ft | 301 kts | 237° |
| 2026-05-06 19:35 | 51.09558 | 0.60841 | 9098 ft | 300 kts | 237° |
| 2026-05-06 19:35 | 51.08385 | 0.58118 | 8934 ft | 304 kts | 237° |
| 2026-05-06 19:35 | 51.07188 | 0.55335 | 8758 ft | 305 kts | 237° |
| 2026-05-06 19:35 | 51.06115 | 0.52459 | 8567 ft | 301 kts | 251° |
| 2026-05-06 19:36 | 51.05685 | 0.49280 | 8402 ft | 289 kts | 264° |
| 2026-05-06 19:36 | 51.05477 | 0.46160 | 8290 ft | 278 kts | 265° |
| 2026-05-06 19:36 | 51.05302 | 0.43098 | 8040 ft | 273 kts | 266° |
| 2026-05-06 19:36 | 51.05142 | 0.40159 | 7985 ft | 263 kts | 266° |
| 2026-05-06 19:37 | 51.04983 | 0.37282 | 7976 ft | 260 kts | 266° |
| 2026-05-06 19:37 | 51.04826 | 0.34444 | 7973 ft | 262 kts | 266° |
| 2026-05-06 19:37 | 51.04666 | 0.31560 | 7983 ft | 262 kts | 266° |
| 2026-05-06 19:37 | 51.04503 | 0.28683 | 7974 ft | 261 kts | 266° |
| 2026-05-06 19:38 | 51.04340 | 0.25811 | 7978 ft | 261 kts | 266° |
| 2026-05-06 19:38 | 51.04179 | 0.22942 | 7981 ft | 261 kts | 266° |
| 2026-05-06 19:38 | 51.04019 | 0.20072 | 7978 ft | 261 kts | 266° |
| 2026-05-06 19:38 | 51.03861 | 0.17197 | 7983 ft | 261 kts | 266° |
| 2026-05-06 19:39 | 51.03704 | 0.14319 | 7985 ft | 262 kts | 266° |
| 2026-05-06 19:39 | 51.03542 | 0.11439 | 7989 ft | 262 kts | 266° |
| 2026-05-06 19:39 | 51.03379 | 0.08546 | 7979 ft | 263 kts | 266° |
| 2026-05-06 19:39 | 51.03214 | 0.05661 | 7989 ft | 262 kts | 266° |
| 2026-05-06 19:40 | 51.03046 | 0.02777 | 7987 ft | 263 kts | 266° |
| 2026-05-06 19:40 | 51.02882 | -0.00114 | 7988 ft | 263 kts | 266° |
| 2026-05-06 19:40 | 51.02716 | -0.03004 | 7994 ft | 263 kts | 266° |
| 2026-05-06 19:40 | 51.02543 | -0.05903 | 7993 ft | 264 kts | 266° |
| 2026-05-06 19:41 | 51.02368 | -0.08803 | 7984 ft | 263 kts | 266° |
| 2026-05-06 19:41 | 51.02207 | -0.11423 | 7882 ft | 261 kts | 266° |
| 2026-05-06 19:41 | 51.02055 | -0.13882 | 7627 ft | 261 kts | 266° |
| 2026-05-06 19:41 | 51.01875 | -0.16752 | 7375 ft | 260 kts | 266° |
| 2026-05-06 19:42 | 51.01694 | -0.19607 | 7087 ft | 259 kts | 266° |
| 2026-05-06 19:42 | 51.01513 | -0.22437 | 6881 ft | 254 kts | 266° |
| 2026-05-06 19:42 | 51.01340 | -0.25158 | 6800 ft | 242 kts | 266° |
| 2026-05-06 19:42 | 51.01168 | -0.27774 | 6593 ft | 237 kts | 266° |
| 2026-05-06 19:43 | 51.01002 | -0.30378 | 6346 ft | 236 kts | 265° |
| 2026-05-06 19:43 | 51.00840 | -0.32972 | 6085 ft | 236 kts | 266° |
| 2026-05-06 19:43 | 51.00679 | -0.35553 | 5850 ft | 234 kts | 266° |
| 2026-05-06 19:43 | 51.00513 | -0.38115 | 5591 ft | 233 kts | 265° |
| 2026-05-06 19:44 | 51.00348 | -0.40672 | 5304 ft | 233 kts | 266° |
| 2026-05-06 19:44 | 51.00199 | -0.43174 | 5034 ft | 232 kts | 271° |
| 2026-05-06 19:44 | 51.00596 | -0.45650 | 4703 ft | 227 kts | 304° |
| 2026-05-06 19:44 | 51.01741 | -0.47278 | 4396 ft | 220 kts | 338° |
| 2026-05-06 19:45 | 51.03187 | -0.47877 | 4204 ft | 212 kts | 349° |
| 2026-05-06 19:45 | 51.04603 | -0.48259 | 4024 ft | 201 kts | 351° |
| 2026-05-06 19:45 | 51.05959 | -0.48610 | 3828 ft | 194 kts | 351° |
| 2026-05-06 19:45 | 51.07275 | -0.48921 | 3635 ft | 187 kts | 358° |
| 2026-05-06 19:46 | 51.08474 | -0.48408 | 3452 ft | 183 kts | 35° |
| 2026-05-06 19:46 | 51.09418 | -0.47074 | 3308 ft | 181 kts | 41° |
| 2026-05-06 19:46 | 51.10352 | -0.45715 | 3170 ft | 182 kts | 40° |
| 2026-05-06 19:46 | 51.11216 | -0.44257 | 3049 ft | 183 kts | 59° |
| 2026-05-06 19:47 | 51.11549 | -0.42295 | 2974 ft | 187 kts | 76° |
| 2026-05-06 19:47 | 51.11876 | -0.40278 | 2729 ft | 188 kts | 72° |
| 2026-05-06 19:47 | 51.12184 | -0.38284 | 2462 ft | 182 kts | 75° |
| 2026-05-06 19:47 | 51.12447 | -0.36370 | 2216 ft | 172 kts | 75° |
| 2026-05-06 19:48 | 51.12691 | -0.34571 | 2001 ft | 162 kts | 75° |
| 2026-05-06 19:48 | 51.12930 | -0.32815 | 1787 ft | 163 kts | 75° |
| 2026-05-06 19:48 | 51.13168 | -0.31062 | 1555 ft | 160 kts | 75° |
| 2026-05-06 19:48 | 51.13396 | -0.29390 | 1368 ft | 149 kts | 75° |
| 2026-05-06 19:49 | 51.13617 | -0.27770 | 1137 ft | 150 kts | 74° |
| 2026-05-06 19:49 | 51.13827 | -0.26229 | 939 ft | 146 kts | 75° |
| 2026-05-06 19:49 | 51.14048 | -0.24680 | 723 ft | 140 kts | 76° |
| 2026-05-06 19:49 | 51.14248 | -0.23174 | 529 ft | 139 kts | 77° |
| 2026-05-06 19:50 | 51.14453 | -0.21680 | 364 ft | 137 kts | 78° |
| 2026-05-06 19:50 | 51.14653 | -0.20203 | 211 ft | 132 kts | 78° |
| 2026-05-06 19:50 | 51.14813 | -0.19043 | 208 ft | 76 kts | 78° |
| 2026-05-06 19:50 | 51.14904 | -0.18388 | 211 ft | 55 kts | 77° |
| 2026-05-06 19:51 | 51.14994 | -0.17927 | 209 ft | 26 kts | 56° |
| 2026-05-06 19:51 | 51.15063 | -0.17785 | 204 ft | 7 kts | 50° |
| 2026-05-06 19:51 | 51.15103 | -0.17753 | 212 ft | 6 kts | 1° |
| 2026-05-06 19:51 | 51.15144 | -0.17761 | 204 ft | 7 kts | 352° |
| 2026-05-06 19:52 | 51.15203 | -0.17773 | 213 ft | 5 kts | 351° |
| 2026-05-06 19:52 | 51.15205 | -0.17773 | 204 ft | 0 kts | 351° |
| 2026-05-06 19:52 | 51.15213 | -0.17775 | 204 ft | 5 kts | 351° |
| 2026-05-06 19:52 | 51.15262 | -0.17716 | 203 ft | 12 kts | 74° |
| 2026-05-06 19:53 | 51.15282 | -0.17587 | 206 ft | 12 kts | 78° |
| 2026-05-06 19:53 | 51.15298 | -0.17460 | 203 ft | 12 kts | 79° |
| 2026-05-06 19:53 | 51.15339 | -0.17363 | 213 ft | 11 kts | 25° |
| 2026-05-06 19:53 | 51.15374 | -0.17257 | 203 ft | 11 kts | 70° |
| 2026-05-06 19:54 | 51.15398 | -0.17145 | 210 ft | 11 kts | 59° |
| 2026-05-06 19:54 | 51.15418 | -0.17034 | 203 ft | 10 kts | 78° |
| 2026-05-06 19:54 | 51.15434 | -0.16925 | 205 ft | 10 kts | 77° |
| 2026-05-06 19:54 | 51.15449 | -0.16818 | 203 ft | 10 kts | 78° |
| 2026-05-06 19:55 | 51.15443 | -0.16714 | 211 ft | 10 kts | 98° |
| 2026-05-06 19:55 | 51.15455 | -0.16615 | 203 ft | 7 kts | 77° |
| 2026-05-06 19:55 | 51.15477 | -0.16575 | 208 ft | 5 kts | 11° |
| 2026-05-06 19:55 | 51.15510 | -0.16589 | 203 ft | 5 kts | 345° |
| 2026-05-06 19:56 | 51.15531 | -0.16596 | 203 ft | 2 kts | 348° |
| 2026-05-06 19:56 | 51.15533 | -0.16597 | 203 ft | 0 kts | 348° |